createdAt,value
2019-03-06T00:03:39.083Z,1.14
2019-03-06T00:08:48.209Z,1.27
2019-03-06T00:13:57.278Z,1.06
2019-03-06T00:19:06.427Z,1.17
2019-03-06T00:24:15.515Z,1.21
2019-03-06T00:29:24.707Z,1.33
2019-03-06T00:34:34.083Z,1.35
2019-03-06T00:39:43.348Z,1.24
2019-03-06T00:44:52.417Z,1.06
2019-03-06T00:50:01.684Z,1.12
2019-03-06T00:55:10.779Z,0.97
2019-03-06T01:00:19.905Z,1.15
2019-03-06T01:05:28.993Z,0.92
2019-03-06T01:10:38.159Z,1.19
2019-03-06T01:15:47.162Z,1.15
2019-03-06T01:20:56.329Z,1.18
2019-03-06T01:26:05.391Z,1.33
2019-03-06T01:31:14.512Z,1.30
2019-03-06T01:36:23.592Z,1.08
2019-03-06T01:41:32.923Z,1.52
2019-03-06T01:46:41.982Z,1.04
2019-03-06T01:51:51.258Z,1.23
2019-03-06T01:57:00.311Z,1.34
2019-03-06T02:02:09.017Z,1.37
2019-03-06T02:07:18.179Z,1.45
2019-03-06T02:12:27.296Z,1.11
2019-03-06T02:17:36.322Z,1.45
2019-03-06T02:22:45.562Z,1.05
2019-03-06T02:27:54.666Z,1.39
2019-03-06T02:33:03.806Z,1.30
2019-03-06T02:38:12.887Z,1.38
2019-03-06T02:43:22.051Z,1.36
2019-03-06T02:48:31.056Z,1.45
2019-03-06T02:53:40.231Z,1.54
2019-03-06T02:58:49.318Z,1.30
2019-03-06T03:03:58.477Z,1.68
2019-03-06T03:09:07.542Z,1.66
2019-03-06T03:14:16.713Z,1.38
2019-03-06T03:19:25.785Z,1.27
2019-03-06T03:24:34.944Z,1.46
2019-03-06T03:29:44.014Z,1.27
2019-03-06T03:34:53.151Z,1.19
2019-03-06T03:40:02.230Z,1.18
2019-03-06T03:45:11.539Z,1.32
2019-03-06T03:50:20.614Z,1.13
2019-03-06T03:55:29.726Z,1.14
2019-03-06T04:00:38.794Z,1.48
2019-03-06T04:05:47.915Z,1.11
2019-03-06T04:10:56.981Z,0.92
2019-03-06T04:16:06.096Z,1.21
2019-03-06T04:21:27.114Z,0.87
2019-03-06T04:26:16.174Z,0.90
2019-03-06T04:31:25.239Z,0.86
2019-03-06T04:36:34.607Z,1.07
2019-03-06T04:41:43.856Z,0.77
2019-03-06T04:46:53.041Z,0.73
2019-03-06T04:52:02.117Z,0.69
2019-03-06T04:57:11.291Z,0.80
2019-03-06T05:02:20.451Z,0.72
2019-03-06T05:07:29.627Z,1.06
2019-03-06T05:12:38.682Z,0.66
2019-03-06T05:17:47.800Z,1.05
2019-03-06T05:22:56.915Z,0.96
2019-03-06T05:28:06.078Z,0.84
2019-03-06T05:33:15.150Z,0.66
2019-03-06T05:38:24.257Z,0.73
2019-03-06T05:43:33.298Z,0.77
2019-03-06T05:48:42.506Z,0.67
2019-03-06T05:53:51.550Z,0.64
2019-03-06T05:59:00.738Z,0.37
2019-03-06T06:04:09.841Z,0.26
2019-03-06T06:09:19.021Z,0.26
2019-03-06T06:14:28.081Z,0.35
2019-03-06T06:19:37.198Z,0.42
2019-03-06T06:24:46.311Z,0.50
2019-03-06T06:29:55.486Z,0.48
2019-03-06T06:35:04.486Z,0.76
2019-03-06T06:40:13.628Z,0.71
2019-03-06T06:45:22.714Z,1.04
2019-03-06T06:50:31.890Z,0.72
2019-03-06T06:55:40.973Z,1.07
2019-03-06T07:00:50.110Z,0.99
2019-03-06T07:05:59.171Z,0.77
2019-03-06T07:11:08.348Z,0.84
2019-03-06T07:16:17.421Z,0.91
2019-03-06T07:21:26.718Z,0.77
2019-03-06T07:26:35.805Z,0.95
2019-03-06T07:31:44.880Z,0.98
2019-03-06T07:36:53.938Z,1.08
2019-03-06T07:42:03.150Z,0.96
2019-03-06T07:47:12.239Z,1.37
2019-03-06T07:52:21.413Z,1.27
2019-03-06T07:57:30.518Z,1.11
2019-03-06T08:02:39.694Z,1.16
2019-03-06T08:07:48.747Z,1.14
2019-03-06T08:12:57.842Z,0.88
2019-03-06T08:18:06.915Z,0.92
2019-03-06T08:23:16.056Z,1.04
2019-03-06T08:28:25.131Z,0.86
2019-03-06T08:33:34.310Z,1.05
2019-03-06T08:38:43.608Z,0.87
2019-03-06T08:43:53.559Z,0.77
2019-03-06T08:49:02.614Z,0.88
2019-03-06T08:54:11.704Z,0.93
2019-03-06T08:59:20.711Z,0.88
2019-03-06T09:04:29.876Z,0.83
2019-03-06T09:09:38.919Z,0.96
2019-03-06T09:14:48.098Z,0.85
2019-03-06T09:19:57.142Z,0.80
2019-03-06T09:25:06.254Z,1.14
2019-03-06T09:30:16.206Z,0.96
2019-03-06T09:35:24.106Z,1.05
2019-03-06T09:40:33.198Z,1.06
2019-03-06T09:45:42.311Z,1.23
2019-03-06T09:50:51.402Z,0.92
2019-03-06T09:56:00.584Z,0.91
2019-03-06T10:01:09.731Z,1.02
2019-03-06T10:06:18.952Z,1.05
2019-03-06T10:11:28.034Z,0.77
2019-03-06T10:16:37.182Z,0.71
2019-03-06T10:21:46.267Z,1.01
2019-03-06T10:26:55.404Z,0.56
2019-03-06T10:32:04.475Z,0.53
2019-03-06T10:37:13.666Z,0.58
2019-03-06T10:42:22.277Z,0.72
2019-03-06T10:47:31.406Z,0.56
2019-03-06T10:52:40.507Z,0.46
2019-03-06T10:57:49.706Z,0.58
2019-03-06T11:02:58.982Z,0.59
2019-03-06T11:08:08.235Z,0.75
2019-03-06T11:13:17.410Z,0.68
2019-03-06T11:18:26.607Z,0.55
2019-03-06T11:23:35.707Z,0.72
2019-03-06T11:28:44.906Z,0.84
2019-03-06T11:33:53.962Z,0.65
2019-03-06T11:39:03.225Z,0.69
2019-03-06T11:44:12.318Z,0.66
2019-03-06T11:49:21.420Z,0.64
2019-03-06T11:54:30.466Z,0.67
2019-03-06T11:59:39.565Z,0.66
2019-03-06T12:04:48.761Z,0.46
2019-03-06T12:09:58.006Z,0.44
2019-03-06T12:15:07.102Z,0.48
2019-03-06T12:20:16.300Z,0.49
2019-03-06T12:25:25.385Z,0.43
2019-03-06T12:30:34.614Z,0.51
2019-03-06T12:35:43.659Z,0.41
2019-03-06T12:40:52.944Z,0.52
2019-03-06T12:46:02.032Z,0.45
2019-03-06T12:51:11.195Z,0.37
2019-03-06T12:56:20.242Z,0.52
2019-03-06T13:01:29.408Z,0.31
2019-03-06T13:06:38.498Z,0.39
2019-03-06T13:11:47.654Z,0.53
2019-03-06T13:16:56.730Z,0.44
2019-03-06T13:22:11.173Z,0.38
2019-03-06T13:27:14.539Z,0.41
2019-03-06T13:32:23.721Z,0.54
2019-03-06T13:37:32.811Z,0.23
2019-03-06T13:42:42.185Z,0.46
2019-03-06T13:47:51.238Z,0.38
2019-03-06T13:53:00.387Z,0.36
2019-03-06T13:58:09.650Z,0.39
2019-03-06T14:03:19.003Z,0.42
2019-03-06T14:08:28.022Z,0.57
2019-03-06T14:13:37.990Z,0.48
2019-03-06T14:18:47.054Z,0.48
2019-03-06T14:23:56.332Z,0.57
2019-03-06T14:29:05.435Z,0.58
2019-03-06T14:34:14.566Z,0.40
2019-03-06T14:39:23.630Z,0.43
2019-03-06T14:44:32.825Z,0.35
2019-03-06T14:49:41.900Z,0.44
2019-03-06T14:54:51.026Z,0.26
2019-03-06T15:00:00.324Z,0.21
2019-03-06T15:05:09.315Z,0.21
2019-03-06T15:10:18.494Z,0.19
2019-03-06T15:15:27.813Z,0.21
2019-03-06T15:20:37.674Z,0.19
2019-03-06T15:25:46.794Z,0.32
2019-03-06T15:30:58.023Z,0.16
2019-03-06T15:35:57.057Z,0.18
2019-03-06T15:41:06.090Z,0.21
2019-03-06T15:46:15.390Z,0.13
2019-03-06T15:51:24.444Z,0.31
2019-03-06T15:56:33.676Z,0.24
2019-03-06T16:01:42.787Z,0.23
2019-03-06T16:06:54.225Z,0.26
2019-03-06T16:12:00.578Z,0.39
2019-03-06T16:17:09.750Z,0.24
2019-03-06T16:22:18.813Z,0.21
2019-03-06T16:27:27.898Z,0.18
2019-03-06T16:32:36.937Z,0.25
2019-03-06T16:37:46.063Z,0.36
2019-03-06T16:42:55.246Z,0.23
2019-03-06T16:48:04.869Z,0.27
2019-03-06T16:53:13.951Z,0.22
2019-03-06T16:58:23.079Z,0.21
2019-03-06T17:03:32.264Z,0.24
2019-03-06T17:08:41.468Z,0.22
2019-03-06T17:13:50.534Z,0.13
2019-03-06T17:18:59.733Z,0.18
2019-03-06T17:24:08.827Z,0.17
2019-03-06T17:29:17.945Z,0.18
2019-03-06T17:34:27.023Z,0.15
2019-03-06T17:39:36.167Z,0.20
2019-03-06T17:44:45.254Z,0.17
2019-03-06T17:49:54.376Z,0.12
2019-03-06T17:55:03.414Z,0.10
2019-03-06T18:00:16.853Z,0.28
2019-03-06T18:05:21.331Z,0.14
2019-03-06T18:10:30.526Z,0.13
2019-03-06T18:15:39.647Z,0.12
2019-03-06T18:20:48.786Z,0.19
2019-03-06T18:26:17.873Z,0.14
2019-03-06T18:31:06.889Z,0.18
2019-03-06T18:36:16.059Z,0.19
2019-03-06T18:41:25.155Z,0.17
2019-03-06T18:46:34.352Z,0.13
2019-03-06T18:51:43.431Z,0.18
2019-03-06T18:56:52.581Z,0.14
2019-03-06T19:02:01.646Z,0.15
2019-03-06T19:07:10.867Z,0.06
2019-03-06T19:12:19.969Z,0.15
2019-03-06T19:17:29.095Z,0.15
2019-03-06T19:22:38.190Z,0.16
2019-03-06T19:27:47.350Z,0.13
2019-03-06T19:32:56.407Z,0.14
2019-03-06T19:38:05.660Z,0.18
2019-03-06T19:43:14.710Z,0.15
2019-03-06T19:48:23.834Z,0.15
2019-03-06T19:53:32.929Z,0.13
2019-03-06T19:58:42.228Z,0.18
2019-03-06T20:03:51.319Z,0.16
2019-03-06T20:09:00.482Z,0.36
2019-03-06T20:14:09.568Z,0.22
2019-03-06T20:19:18.738Z,0.19
2019-03-06T20:24:27.825Z,0.25
2019-03-06T20:29:36.990Z,0.33
2019-03-06T20:34:46.062Z,0.30
2019-03-06T20:39:55.348Z,0.30
2019-03-06T20:45:04.585Z,0.32
2019-03-06T20:50:13.784Z,0.35
2019-03-06T20:55:23.057Z,0.30
2019-03-06T21:00:32.393Z,0.23
2019-03-06T21:05:41.493Z,0.33
2019-03-06T21:10:50.665Z,0.46
2019-03-06T21:15:59.751Z,0.38
2019-03-06T21:21:08.856Z,0.33
2019-03-06T21:26:18.322Z,0.52
2019-03-06T21:31:27.466Z,0.40
2019-03-06T21:36:36.544Z,0.56
2019-03-06T21:41:45.675Z,0.51
2019-03-06T21:46:54.774Z,0.42
2019-03-06T21:52:03.885Z,0.59
2019-03-06T21:57:12.899Z,0.57
2019-03-06T22:02:22.012Z,0.54
2019-03-06T22:07:31.103Z,0.54
2019-03-06T22:12:40.233Z,0.55
2019-03-06T22:17:49.297Z,0.57
2019-03-06T22:22:58.421Z,0.67
2019-03-06T22:28:07.586Z,0.67
2019-03-06T22:33:16.788Z,0.54
2019-03-06T22:38:25.883Z,0.58
2019-03-06T22:43:34.978Z,0.55
2019-03-06T22:48:43.995Z,0.53
2019-03-06T22:53:53.183Z,0.45
2019-03-06T22:59:02.263Z,0.52
2019-03-06T23:04:11.419Z,0.50
2019-03-06T23:09:20.506Z,0.48
2019-03-06T23:14:29.623Z,0.60
2019-03-06T23:19:38.672Z,0.61
2019-03-06T23:24:48.809Z,0.59
2019-03-06T23:29:56.375Z,0.49
2019-03-06T23:35:05.560Z,0.83
2019-03-06T23:40:14.638Z,0.93
2019-03-06T23:45:23.729Z,1.08
2019-03-06T23:50:32.783Z,0.89
2019-03-06T23:55:42.171Z,1.03
